This demonstration page uses our WeatherBlox Daily Observations layout. Learn more.

Left ArrowRight Arrow

Hourly Observations for July 8, 2015

Temp ( °F °C ) Dew Point ( °F °C ) Humidity (%) Winds ( mph kmh ) Pressure ( in mb ) Visibility ( mi km ) Precip ( " mm )
12:51 am 00:51 Clear 76 24.4 58 14.4 54 54 E 6 9 29.73 1007 10 16.0934 N/A
1:51 am 01:51 Mostly Clear 44 6.7 41 5 89 89 E 10 17 29.88 1012 10 16.0934 N/A
2:51 am 02:51 Clear 44 6.7 41 5 89 89 E 10 17 29.91 1013 10 16.0934 N/A
3:51 am 03:51 Mostly Clear 78 25.6 54 12.2 43 43 E 9 15 29.74 1007 10 16.0934 N/A
4:51 am 04:51 Mostly Clear 77 25 55 12.8 47 47 E 10 17 29.76 1008 10 16.0934 N/A
5:51 am 05:51 Mostly Cloudy 78 25.6 56 13.3 47 47 ESE 8 13 29.77 1008 10 16.0934 N/A
6:51 am 06:51 Cloudy 80 26.7 57 13.9 45 45 E 9 15 29.78 1009 10 16.0934 N/A
7:51 am 07:51 Partly Cloudy 82 27.8 56 13.3 41 41 E 10 17 29.8 1009 10 16.0934 N/A
8:51 am 08:51 Mostly Cloudy 84 28.9 56 13.3 38 38 ESE 7 11 29.8 1009 10 16.0934 N/A
9:51 am 09:51 Mostly Sunny 86 30 56 13.3 36 36 S 7 11 29.79 1009 10 16.0934 N/A
10:51 am 10:51 Mostly Sunny 88 31.1 56 13.3 34 34 VRB 3 6 29.78 1009 10 16.0934 N/A
11:51 am 11:51 Sunny 92 33.3 51 10.6 25 25 VRB 3 6 29.74 1007 10 16.0934 N/A
12:51 pm 12:51 Sunny 92 33.3 51 10.6 25 25 N N/A 29.71 1006 10 16.0934 N/A
1:51 pm 13:51 Sunny 98 36.7 52 11.1 21 21 undefined N/A 29.67 1005 10 16.0934 N/A
2:51 pm 14:51 Sunny 88 31.1 73 22.8 61 61 VRB 5 7 30.1 1019 10 16.0934 N/A
3:51 pm 15:51 Sunny 97 36.1 52 11.1 22 22 VRB 5 7 29.63 1003 10 16.0934 N/A
4:51 pm 16:51 Sunny 98 36.7 51 10.6 20 20 W 3 6 29.61 1003 10 16.0934 N/A
5:51 pm 17:51 Sunny 96 35.6 51 10.6 22 22 NW 7 11 29.6 1002 10 16.0934 N/A
6:51 pm 18:51 Partly Cloudy 95 35 50 10 22 22 W 3 6 29.6 1002 10 16.0934 N/A
7:51 pm 19:51 Mostly Cloudy 92 33.3 48 8.9 22 22 WNW 8 13 29.62 1003 10 16.0934 N/A
8:51 pm 20:51 Mostly Clear 87 30.6 49 9.4 27 27 NW 9 15 29.65 1004 10 16.0934 N/A
9:51 pm 21:51 Mostly Cloudy 87 30.6 50 10 28 28 NW 13 20 29.66 1005 10 16.0934 N/A
10:51 pm 22:51 Clear 86 30 54 12.2 33 33 NW 17 28 29.67 1005 10 16.0934 N/A
11:51 pm 23:51 Cloudy 84 28.9 55 12.8 37 37 NNE 7 11 29.7 1006 10 16.0934 N/A

Powered by AerisWeather